Aviation Digital Data Service (ADDS)

Output produced by METARs form (0937 UTC 28 September 2021)
found at http://www.aviationweather.gov/metar/data/
 
VTBS 280930Z 31006KT 250V340 9999 FEW020 30/24 Q1006 NOSIG
VTBS 280900Z 27008KT 9999 FEW020 31/24 Q1005 NOSIG
VTBS 280830Z 25006KT 210V280 9999 FEW020 31/24 Q1006 NOSIG
VTBS 280800Z 26007KT 210V290 9999 VCSH FEW020CB SCT035 32/24 Q1007 NOSIG
VTBS 280730Z 22006KT 120V290 9999 VCSH FEW020CB SCT035 32/24 Q1007 NOSIG
VTBS 280700Z VRB03KT 9999 FEW020 34/22 Q1007 NOSIG
VTBS 280630Z 11004KT 050V180 9999 FEW020 33/22 Q1008 NOSIG
VTBS 280600Z 10006KT 050V180 9999 FEW020 33/22 Q1008 NOSIG
VTBS 280530Z VRB05KT 9999 FEW020 32/23 Q1009 NOSIG
VTBS 280500Z VRB04KT 9999 FEW020 32/24 Q1009 NOSIG
VTBS 280430Z VRB02KT 9999 SCT020 31/23 Q1010 NOSIG
VTBS 280400Z 36003KT 280V090 9999 SCT020 31/24 Q1010 NOSIG
VTBS 280330Z VRB02KT 9999 SCT020 31/24 Q1010 NOSIG
VTBS 280300Z VRB02KT 9999 SCT016 31/25 Q1010 NOSIG
VTBS 280230Z VRB02KT 9999 FEW014 30/25 Q1010 NOSIG
VTBS 280200Z VRB03KT 9999 FEW009 29/25 Q1010 NOSIG
VTBS 280130Z 01004KT 9999 FEW009 28/25 Q1010 NOSIG
VTBS 280100Z 02003KT 340V070 9000 FEW006 28/25 Q1010 NOSIG
VTBS 280030Z VRB02KT 8000 FEW006 27/25 Q1010 NOSIG
VTBS 280000Z VRB02KT 8000 FEW006 BKN070 27/24 Q1010 NOSIG
VTBS 272330Z 36002KT 8000 FEW006 BKN070 26/24 Q1009 NOSIG
VTBS 272300Z 03003KT 360V080 9000 FEW006 BKN070 26/24 Q1009 NOSIG
VTBS 272230Z 01005KT 9000 FEW006 BKN070 26/24 Q1009 NOSIG
VTBS 272200Z 03003KT 330V110 9999 FEW006 BKN070 26/24 Q1009 NOSIG
VTBS 272130Z 02003KT 010V080 9999 FEW006 BKN070 26/24 Q1008 NOSIG
VTBS 272100Z VRB02KT 9999 FEW009 BKN070 26/24 Q1008 NOSIG
VTBS 272030Z 06003KT 030V100 9999 FEW020 26/24 Q1008 NOSIG
VTBS 272000Z 04003KT 020V090 9999 FEW020 26/24 Q1008 NOSIG
VTBS 271930Z VRB01KT 9999 FEW020 26/24 Q1008 NOSIG
VTBS 271900Z VRB02KT 9999 FEW020 26/24 Q1008 NOSIG
VTBS 271830Z 10003KT 040V200 9999 FEW020 26/24 Q1008 NOSIG
VTBS 271800Z 07003KT 040V210 9999 FEW020 27/24 Q1009 NOSIG
VTBS 271730Z 03003KT 340V070 9999 FEW020 26/24 Q1009 NOSIG
VTBS 271700Z 07003KT 020V180 9999 FEW020 27/23 Q1010 NOSIG
VTBS 271630Z 06003KT 040V180 9999 FEW020 27/23 Q1010 NOSIG
VTBS 271600Z VRB04KT 9999 FEW020 27/24 Q1010 NOSIG
VTBS 271530Z 08004KT 070V150 9999 FEW020 27/24 Q1010 NOSIG
VTBS 271500Z 03004KT 360V080 9999 FEW020 26/24 Q1010 NOSIG
VTBS 271430Z VRB04KT 9999 FEW020 26/24 Q1010 NOSIG
VTBS 271400Z VRB02KT 9999 FEW020 26/23 Q1010 NOSIG
VTBS 271330Z VRB02KT 9999 FEW020 26/23 Q1009 NOSIG
VTBS 271300Z 34003KT 9999 FEW020 26/23 Q1009 NOSIG
VTBS 271230Z 04003KT 360V080 9999 FEW020 26/23 Q1009 NOSIG
VTBS 271200Z 05005KT 020V160 9999 FEW020 26/23 Q1008 NOSIG
VTBS 271130Z VRB02KT 9999 FEW020 26/23 Q1008 NOSIG
VTBS 271100Z 05006KT 9999 FEW010 26/23 Q1007 NOSIG
VTBS 271030Z 07007KT 9999 -RA FEW008 FEW020CB SCT050 BKN080 25/23 Q1006 NOSIG
VTBS 271000Z 08015KT 070V130 9000 -RA FEW008 FEW020CB SCT050 BKN080 26/23 Q1007 NOSIG
TAF VTBS 280500Z 2806/2912 14005KT 9999 FEW020 
     TEMPO 2806/2812 12010G25KT 4000 TSRA FEW018CB SCT030 BKN100 
     BECMG 2818/2820 35005KT 
     BECMG 2903/2905 18005KT 
     TEMPO 2906/2912 20010G25KT 4000 TSRA FEW018CB SCT030 BKN100